sensor_id;sensor_type;location;lat;lon;timestamp;pressure;altitude;pressure_sealevel;temperature;humidity
51053;BME280;37093;37.716;-122.060;2022-12-07T00:01:10;100104.06;;;14.55;41.17
51053;BME280;37093;37.716;-122.060;2022-12-07T00:03:40;100105.29;;;14.38;41.50
51053;BME280;37093;37.716;-122.060;2022-12-07T00:06:11;100104.07;;;13.94;42.29
51053;BME280;37093;37.716;-122.060;2022-12-07T00:08:41;100101.40;;;14.31;41.91
51053;BME280;37093;37.716;-122.060;2022-12-07T00:11:11;100099.67;;;13.80;43.16
51053;BME280;37093;37.716;-122.060;2022-12-07T00:13:41;100103.58;;;14.26;42.63
51053;BME280;37093;37.716;-122.060;2022-12-07T00:16:11;100104.17;;;14.11;42.30
51053;BME280;37093;37.716;-122.060;2022-12-07T00:18:40;100105.01;;;14.46;42.28
51053;BME280;37093;37.716;-122.060;2022-12-07T00:21:12;100106.33;;;14.37;42.28
51053;BME280;37093;37.716;-122.060;2022-12-07T00:23:42;100108.97;;;14.49;42.30
51053;BME280;37093;37.716;-122.060;2022-12-07T00:26:12;100109.34;;;14.53;41.94
51053;BME280;37093;37.716;-122.060;2022-12-07T00:28:44;100104.84;;;14.83;41.04
51053;BME280;37093;37.716;-122.060;2022-12-07T00:31:14;100109.91;;;14.53;41.50
51053;BME280;37093;37.716;-122.060;2022-12-07T00:33:43;100112.57;;;14.73;41.35
51053;BME280;37093;37.716;-122.060;2022-12-07T00:36:17;100111.98;;;14.87;42.06
51053;BME280;37093;37.716;-122.060;2022-12-07T00:38:45;100112.25;;;14.97;41.47
51053;BME280;37093;37.716;-122.060;2022-12-07T00:41:15;100114.54;;;15.01;41.68
51053;BME280;37093;37.716;-122.060;2022-12-07T00:43:45;100117.07;;;15.18;42.34
51053;BME280;37093;37.716;-122.060;2022-12-07T00:46:14;100118.70;;;15.21;41.17
51053;BME280;37093;37.716;-122.060;2022-12-07T00:48:42;100124.21;;;15.04;41.73
51053;BME280;37093;37.716;-122.060;2022-12-07T00:51:11;100132.13;;;15.32;40.88
51053;BME280;37093;37.716;-122.060;2022-12-07T00:53:41;100135.56;;;15.04;41.76
51053;BME280;37093;37.716;-122.060;2022-12-07T00:56:12;100138.69;;;15.05;41.31
51053;BME280;37093;37.716;-122.060;2022-12-07T00:58:42;100143.11;;;15.06;40.72
51053;BME280;37093;37.716;-122.060;2022-12-07T01:01:11;100144.39;;;15.05;41.19
51053;BME280;37093;37.716;-122.060;2022-12-07T01:03:39;100145.95;;;15.06;42.27
51053;BME280;37093;37.716;-122.060;2022-12-07T01:06:08;100145.88;;;15.31;42.19
51053;BME280;37093;37.716;-122.060;2022-12-07T01:08:36;100148.40;;;15.02;41.84
51053;BME280;37093;37.716;-122.060;2022-12-07T01:11:06;100149.42;;;15.25;41.61
51053;BME280;37093;37.716;-122.060;2022-12-07T01:13:36;100153.06;;;15.25;41.50
51053;BME280;37093;37.716;-122.060;2022-12-07T01:16:06;100152.21;;;15.39;41.78
51053;BME280;37093;37.716;-122.060;2022-12-07T01:18:36;100154.25;;;15.14;41.24
51053;BME280;37093;37.716;-122.060;2022-12-07T01:21:06;100155.31;;;14.81;41.88
51053;BME280;37093;37.716;-122.060;2022-12-07T01:23:35;100155.65;;;14.79;42.13
51053;BME280;37093;37.716;-122.060;2022-12-07T01:26:06;100153.96;;;14.98;41.71
51053;BME280;37093;37.716;-122.060;2022-12-07T01:28:35;100152.39;;;14.94;40.88
51053;BME280;37093;37.716;-122.060;2022-12-07T01:31:05;100149.67;;;14.87;41.19
51053;BME280;37093;37.716;-122.060;2022-12-07T01:33:35;100149.98;;;14.85;41.25
51053;BME280;37093;37.716;-122.060;2022-12-07T01:36:07;100149.61;;;14.77;41.83
51053;BME280;37093;37.716;-122.060;2022-12-07T01:38:35;100153.05;;;14.79;41.51
51053;BME280;37093;37.716;-122.060;2022-12-07T01:41:04;100156.84;;;14.81;41.36
51053;BME280;37093;37.716;-122.060;2022-12-07T01:43:33;100159.29;;;14.47;41.33
51053;BME280;37093;37.716;-122.060;2022-12-07T01:46:03;100156.07;;;14.29;41.23
51053;BME280;37093;37.716;-122.060;2022-12-07T01:48:34;100157.08;;;14.71;41.87
51053;BME280;37093;37.716;-122.060;2022-12-07T01:51:06;100156.00;;;14.69;41.75
51053;BME280;37093;37.716;-122.060;2022-12-07T01:53:40;100159.75;;;14.48;41.78
51053;BME280;37093;37.716;-122.060;2022-12-07T01:56:12;100157.41;;;14.73;41.66
51053;BME280;37093;37.716;-122.060;2022-12-07T01:58:43;100157.59;;;14.48;41.96
51053;BME280;37093;37.716;-122.060;2022-12-07T02:01:12;100156.08;;;14.47;41.90
51053;BME280;37093;37.716;-122.060;2022-12-07T02:03:43;100160.02;;;14.27;41.38
51053;BME280;37093;37.716;-122.060;2022-12-07T02:06:13;100163.08;;;14.46;41.36
51053;BME280;37093;37.716;-122.060;2022-12-07T02:08:45;100168.29;;;14.46;41.71
51053;BME280;37093;37.716;-122.060;2022-12-07T02:11:14;100171.06;;;14.68;41.60
51053;BME280;37093;37.716;-122.060;2022-12-07T02:13:45;100170.29;;;14.12;41.42
51053;BME280;37093;37.716;-122.060;2022-12-07T02:16:25;100171.21;;;14.06;41.90
51053;BME280;37093;37.716;-122.060;2022-12-07T02:19:06;100172.77;;;14.38;42.09
51053;BME280;37093;37.716;-122.060;2022-12-07T02:21:44;100178.75;;;14.43;42.18
51053;BME280;37093;37.716;-122.060;2022-12-07T02:24:25;100183.06;;;14.30;41.86
51053;BME280;37093;37.716;-122.060;2022-12-07T02:27:44;100188.25;;;13.80;42.16
51053;BME280;37093;37.716;-122.060;2022-12-07T02:30:15;100190.10;;;14.05;42.14
51053;BME280;37093;37.716;-122.060;2022-12-07T02:32:51;100191.78;;;14.37;42.00
51053;BME280;37093;37.716;-122.060;2022-12-07T02:35:28;100192.76;;;13.98;41.29
51053;BME280;37093;37.716;-122.060;2022-12-07T02:38:04;100190.13;;;14.44;41.95
51053;BME280;37093;37.716;-122.060;2022-12-07T02:40:41;100186.31;;;13.86;42.28
51053;BME280;37093;37.716;-122.060;2022-12-07T02:43:15;100186.51;;;13.96;42.14
51053;BME280;37093;37.716;-122.060;2022-12-07T02:45:45;100186.16;;;13.95;41.94
51053;BME280;37093;37.716;-122.060;2022-12-07T02:48:17;100185.19;;;13.70;42.00
51053;BME280;37093;37.716;-122.060;2022-12-07T02:50:49;100189.82;;;13.92;42.51
51053;BME280;37093;37.716;-122.060;2022-12-07T02:53:35;100191.40;;;13.96;42.44
51053;BME280;37093;37.716;-122.060;2022-12-07T02:56:09;100192.65;;;13.48;42.44
51053;BME280;37093;37.716;-122.060;2022-12-07T02:58:53;100196.57;;;13.59;42.84
51053;BME280;37093;37.716;-122.060;2022-12-07T03:01:32;100199.58;;;13.86;42.40
51053;BME280;37093;37.716;-122.060;2022-12-07T03:04:14;100203.51;;;13.84;42.19
51053;BME280;37093;37.716;-122.060;2022-12-07T03:06:53;100200.46;;;13.85;42.51
51053;BME280;37093;37.716;-122.060;2022-12-07T03:09:27;100199.38;;;13.89;42.17
51053;BME280;37093;37.716;-122.060;2022-12-07T03:12:04;100198.07;;;13.89;42.43
51053;BME280;37093;37.716;-122.060;2022-12-07T03:14:38;100201.61;;;13.40;42.35
51053;BME280;37093;37.716;-122.060;2022-12-07T03:17:13;100202.30;;;13.64;41.97
51053;BME280;37093;37.716;-122.060;2022-12-07T03:19:45;100207.64;;;13.62;43.10
51053;BME280;37093;37.716;-122.060;2022-12-07T03:22:16;100213.86;;;13.65;42.81
51053;BME280;37093;37.716;-122.060;2022-12-07T03:24:50;100217.11;;;13.86;42.68
51053;BME280;37093;37.716;-122.060;2022-12-07T03:27:22;100219.02;;;13.85;42.82
51053;BME280;37093;37.716;-122.060;2022-12-07T03:29:56;100219.51;;;13.52;42.53
51053;BME280;37093;37.716;-122.060;2022-12-07T03:32:29;100223.64;;;13.69;42.21
51053;BME280;37093;37.716;-122.060;2022-12-07T03:35:02;100225.28;;;13.62;42.57
51053;BME280;37093;37.716;-122.060;2022-12-07T03:37:35;100225.07;;;13.49;42.44
51053;BME280;37093;37.716;-122.060;2022-12-07T03:40:12;100225.88;;;13.69;42.70
51053;BME280;37093;37.716;-122.060;2022-12-07T03:42:43;100227.23;;;13.32;42.31
51053;BME280;37093;37.716;-122.060;2022-12-07T03:45:12;100233.73;;;13.44;43.00
51053;BME280;37093;37.716;-122.060;2022-12-07T03:47:46;100237.03;;;13.11;43.81
51053;BME280;37093;37.716;-122.060;2022-12-07T03:50:22;100240.35;;;13.37;43.85
51053;BME280;37093;37.716;-122.060;2022-12-07T03:52:55;100239.68;;;13.46;43.27
51053;BME280;37093;37.716;-122.060;2022-12-07T03:55:27;100241.63;;;13.32;43.56
51053;BME280;37093;37.716;-122.060;2022-12-07T03:58:01;100243.59;;;13.59;43.21
51053;BME280;37093;37.716;-122.060;2022-12-07T04:00:32;100244.83;;;13.33;42.35
51053;BME280;37093;37.716;-122.060;2022-12-07T04:03:00;100246.35;;;13.50;42.83
51053;BME280;37093;37.716;-122.060;2022-12-07T04:05:29;100249.25;;;13.51;42.55
51053;BME280;37093;37.716;-122.060;2022-12-07T04:07:58;100249.73;;;13.30;42.80
51053;BME280;37093;37.716;-122.060;2022-12-07T04:10:26;100252.70;;;13.55;42.72
51053;BME280;37093;37.716;-122.060;2022-12-07T04:12:55;100253.26;;;13.55;42.71
51053;BME280;37093;37.716;-122.060;2022-12-07T04:15:24;100251.26;;;13.57;42.42
51053;BME280;37093;37.716;-122.060;2022-12-07T04:17:52;100255.12;;;13.33;42.35
51053;BME280;37093;37.716;-122.060;2022-12-07T04:20:20;100254.76;;;13.33;42.18
51053;BME280;37093;37.716;-122.060;2022-12-07T04:22:48;100258.14;;;13.54;42.26
51053;BME280;37093;37.716;-122.060;2022-12-07T04:25:17;100258.95;;;13.53;42.39
51053;BME280;37093;37.716;-122.060;2022-12-07T04:27:45;100263.68;;;13.52;42.26
51053;BME280;37093;37.716;-122.060;2022-12-07T04:30:14;100267.38;;;13.26;42.02
51053;BME280;37093;37.716;-122.060;2022-12-07T04:32:42;100269.11;;;13.45;41.61
51053;BME280;37093;37.716;-122.060;2022-12-07T04:35:11;100271.99;;;13.37;41.51
51053;BME280;37093;37.716;-122.060;2022-12-07T04:37:39;100273.04;;;13.50;41.94
51053;BME280;37093;37.716;-122.060;2022-12-07T04:40:09;100276.90;;;13.08;41.99
51053;BME280;37093;37.716;-122.060;2022-12-07T04:42:38;100277.12;;;13.53;42.07
51053;BME280;37093;37.716;-122.060;2022-12-07T04:45:08;100274.77;;;13.05;42.16
51053;BME280;37093;37.716;-122.060;2022-12-07T04:47:36;100275.52;;;13.47;42.24
51053;BME280;37093;37.716;-122.060;2022-12-07T04:50:06;100279.46;;;13.21;42.20
51053;BME280;37093;37.716;-122.060;2022-12-07T04:52:35;100276.24;;;13.34;42.42
51053;BME280;37093;37.716;-122.060;2022-12-07T04:55:04;100278.24;;;13.28;42.64
51053;BME280;37093;37.716;-122.060;2022-12-07T04:57:32;100276.75;;;13.28;42.83
51053;BME280;37093;37.716;-122.060;2022-12-07T05:00:01;100277.07;;;13.04;42.50
51053;BME280;37093;37.716;-122.060;2022-12-07T05:02:29;100274.09;;;13.24;42.38
51053;BME280;37093;37.716;-122.060;2022-12-07T05:04:58;100277.33;;;13.16;42.43
51053;BME280;37093;37.716;-122.060;2022-12-07T05:07:26;100280.38;;;12.95;42.84
51053;BME280;37093;37.716;-122.060;2022-12-07T05:09:55;100282.40;;;12.86;42.86
51053;BME280;37093;37.716;-122.060;2022-12-07T05:12:23;100285.25;;;12.79;42.87
51053;BME280;37093;37.716;-122.060;2022-12-07T05:14:52;100289.69;;;12.72;42.57
51053;BME280;37093;37.716;-122.060;2022-12-07T05:17:20;100292.67;;;12.62;42.82
51053;BME280;37093;37.716;-122.060;2022-12-07T05:19:49;100295.62;;;12.59;42.57
51053;BME280;37093;37.716;-122.060;2022-12-07T05:22:18;100297.42;;;12.53;42.88
51053;BME280;37093;37.716;-122.060;2022-12-07T05:24:46;100300.77;;;12.50;42.93
51053;BME280;37093;37.716;-122.060;2022-12-07T05:27:15;100299.71;;;12.50;42.95
51053;BME280;37093;37.716;-122.060;2022-12-07T05:29:44;100298.52;;;12.75;43.69
51053;BME280;37093;37.716;-122.060;2022-12-07T05:32:12;100296.27;;;12.56;43.86
51053;BME280;37093;37.716;-122.060;2022-12-07T05:34:40;100294.13;;;12.57;43.67
51053;BME280;37093;37.716;-122.060;2022-12-07T05:37:09;100293.06;;;12.57;43.33
51053;BME280;37093;37.716;-122.060;2022-12-07T05:39:38;100289.78;;;12.40;43.56
51053;BME280;37093;37.716;-122.060;2022-12-07T05:42:12;100290.04;;;12.66;43.72
51053;BME280;37093;37.716;-122.060;2022-12-07T05:44:41;100292.08;;;12.46;43.79
51053;BME280;37093;37.716;-122.060;2022-12-07T05:47:10;100295.84;;;13.03;43.40
51053;BME280;37093;37.716;-122.060;2022-12-07T05:49:39;100296.67;;;12.45;43.47
51053;BME280;37093;37.716;-122.060;2022-12-07T05:52:08;100296.96;;;12.45;43.40
51053;BME280;37093;37.716;-122.060;2022-12-07T05:54:36;100300.73;;;12.43;43.42
51053;BME280;37093;37.716;-122.060;2022-12-07T05:57:05;100299.06;;;12.42;43.53
51053;BME280;37093;37.716;-122.060;2022-12-07T05:59:33;100299.37;;;12.36;43.69
51053;BME280;37093;37.716;-122.060;2022-12-07T06:02:04;100302.22;;;12.53;43.72
51053;BME280;37093;37.716;-122.060;2022-12-07T06:04:35;100302.76;;;12.63;43.87
51053;BME280;37093;37.716;-122.060;2022-12-07T06:07:05;100299.83;;;12.17;43.72
51053;BME280;37093;37.716;-122.060;2022-12-07T06:09:34;100304.55;;;12.54;43.49
51053;BME280;37093;37.716;-122.060;2022-12-07T06:12:03;100305.29;;;12.28;43.84
51053;BME280;37093;37.716;-122.060;2022-12-07T06:14:32;100310.09;;;12.53;44.15
51053;BME280;37093;37.716;-122.060;2022-12-07T06:17:01;100311.61;;;12.30;44.09
51053;BME280;37093;37.716;-122.060;2022-12-07T06:19:29;100311.54;;;12.09;44.09
51053;BME280;37093;37.716;-122.060;2022-12-07T06:21:58;100310.96;;;12.16;43.80
51053;BME280;37093;37.716;-122.060;2022-12-07T06:24:26;100313.46;;;12.36;43.34
51053;BME280;37093;37.716;-122.060;2022-12-07T06:26:55;100319.02;;;12.60;43.25
51053;BME280;37093;37.716;-122.060;2022-12-07T06:29:23;100321.84;;;12.08;43.32
51053;BME280;37093;37.716;-122.060;2022-12-07T06:31:52;100319.50;;;12.34;43.17
51053;BME280;37093;37.716;-122.060;2022-12-07T06:34:22;100323.51;;;12.43;43.46
51053;BME280;37093;37.716;-122.060;2022-12-07T06:36:52;100321.62;;;12.49;43.30
51053;BME280;37093;37.716;-122.060;2022-12-07T06:39:22;100320.94;;;12.48;43.43
51053;BME280;37093;37.716;-122.060;2022-12-07T06:41:51;100325.87;;;12.22;43.16
51053;BME280;37093;37.716;-122.060;2022-12-07T06:44:21;100325.19;;;12.23;42.93
51053;BME280;37093;37.716;-122.060;2022-12-07T06:46:50;100327.34;;;11.98;43.04
51053;BME280;37093;37.716;-122.060;2022-12-07T06:49:19;100325.91;;;12.26;42.96
51053;BME280;37093;37.716;-122.060;2022-12-07T06:51:48;100325.79;;;12.46;43.16
51053;BME280;37093;37.716;-122.060;2022-12-07T06:54:17;100324.84;;;12.24;43.14
51053;BME280;37093;37.716;-122.060;2022-12-07T06:56:45;100326.03;;;12.20;42.96
51053;BME280;37093;37.716;-122.060;2022-12-07T06:59:14;100325.67;;;12.17;42.94
51053;BME280;37093;37.716;-122.060;2022-12-07T07:01:42;100327.92;;;12.38;42.92
51053;BME280;37093;37.716;-122.060;2022-12-07T07:04:11;100333.77;;;11.84;42.87
51053;BME280;37093;37.716;-122.060;2022-12-07T07:06:39;100338.88;;;11.98;43.28
51053;BME280;37093;37.716;-122.060;2022-12-07T07:09:08;100340.22;;;12.27;42.79
51053;BME280;37093;37.716;-122.060;2022-12-07T07:11:37;100342.79;;;11.92;43.31
51053;BME280;37093;37.716;-122.060;2022-12-07T07:14:05;100342.06;;;11.91;43.20
51053;BME280;37093;37.716;-122.060;2022-12-07T07:16:34;100341.13;;;12.13;43.26
51053;BME280;37093;37.716;-122.060;2022-12-07T07:19:02;100341.97;;;12.14;43.44
51053;BME280;37093;37.716;-122.060;2022-12-07T07:21:31;100346.14;;;11.73;43.45
51053;BME280;37093;37.716;-122.060;2022-12-07T07:24:00;100347.88;;;12.04;43.60
51053;BME280;37093;37.716;-122.060;2022-12-07T07:26:28;100350.85;;;11.80;43.40
51053;BME280;37093;37.716;-122.060;2022-12-07T07:28:57;100350.24;;;11.78;43.49
51053;BME280;37093;37.716;-122.060;2022-12-07T07:31:26;100349.34;;;11.97;43.10
51053;BME280;37093;37.716;-122.060;2022-12-07T07:33:54;100349.47;;;11.86;43.49
51053;BME280;37093;37.716;-122.060;2022-12-07T07:36:23;100350.18;;;12.06;43.95
51053;BME280;37093;37.716;-122.060;2022-12-07T07:38:52;100351.34;;;11.85;43.87
51053;BME280;37093;37.716;-122.060;2022-12-07T07:41:20;100349.55;;;11.86;44.10
51053;BME280;37093;37.716;-122.060;2022-12-07T07:43:49;100350.11;;;11.90;44.18
51053;BME280;37093;37.716;-122.060;2022-12-07T07:46:18;100348.99;;;11.74;44.00
51053;BME280;37093;37.716;-122.060;2022-12-07T07:48:46;100356.09;;;11.40;43.80
51053;BME280;37093;37.716;-122.060;2022-12-07T07:51:15;100357.36;;;11.83;43.90
51053;BME280;37093;37.716;-122.060;2022-12-07T07:53:43;100355.58;;;11.57;43.97
51053;BME280;37093;37.716;-122.060;2022-12-07T07:56:12;100357.03;;;11.84;43.63
51053;BME280;37093;37.716;-122.060;2022-12-07T07:58:41;100359.60;;;11.70;43.96
51053;BME280;37093;37.716;-122.060;2022-12-07T08:01:13;100363.67;;;10.15;44.17
51053;BME280;37093;37.716;-122.060;2022-12-07T08:03:42;100364.28;;;10.50;42.60
51053;BME280;37093;37.716;-122.060;2022-12-07T08:06:10;100360.30;;;12.30;40.53
51053;BME280;37093;37.716;-122.060;2022-12-07T08:08:38;100361.84;;;12.87;40.52
51053;BME280;37093;37.716;-122.060;2022-12-07T08:11:08;100366.94;;;12.10;41.78
51053;BME280;37093;37.716;-122.060;2022-12-07T08:13:36;100366.75;;;12.29;42.22
51053;BME280;37093;37.716;-122.060;2022-12-07T08:16:07;100371.21;;;12.05;42.73
51053;BME280;37093;37.716;-122.060;2022-12-07T08:18:36;100379.22;;;11.81;42.76
51053;BME280;37093;37.716;-122.060;2022-12-07T08:21:07;100377.97;;;11.75;43.03
51053;BME280;37093;37.716;-122.060;2022-12-07T08:23:37;100376.27;;;11.58;43.25
51053;BME280;37093;37.716;-122.060;2022-12-07T08:26:09;100369.86;;;11.29;43.43
51053;BME280;37093;37.716;-122.060;2022-12-07T08:28:37;100368.87;;;11.66;43.42
51053;BME280;37093;37.716;-122.060;2022-12-07T08:31:09;100364.72;;;11.32;43.66
51053;BME280;37093;37.716;-122.060;2022-12-07T08:33:38;100367.38;;;11.31;43.76
51053;BME280;37093;37.716;-122.060;2022-12-07T08:36:09;100363.56;;;11.11;44.16
51053;BME280;37093;37.716;-122.060;2022-12-07T08:38:39;100362.11;;;11.04;44.52
51053;BME280;37093;37.716;-122.060;2022-12-07T08:41:08;100359.55;;;11.22;44.13
51053;BME280;37093;37.716;-122.060;2022-12-07T08:43:37;100356.95;;;11.16;43.70
51053;BME280;37093;37.716;-122.060;2022-12-07T08:46:09;100354.85;;;11.10;44.09
51053;BME280;37093;37.716;-122.060;2022-12-07T08:48:41;100355.85;;;11.22;44.11
51053;BME280;37093;37.716;-122.060;2022-12-07T08:51:12;100355.18;;;11.01;44.10
51053;BME280;37093;37.716;-122.060;2022-12-07T08:53:41;100351.97;;;11.08;44.34
51053;BME280;37093;37.716;-122.060;2022-12-07T08:56:11;100352.99;;;11.44;44.37
51053;BME280;37093;37.716;-122.060;2022-12-07T08:58:39;100352.64;;;11.16;44.66
51053;BME280;37093;37.716;-122.060;2022-12-07T09:01:08;100353.01;;;10.98;44.69
51053;BME280;37093;37.716;-122.060;2022-12-07T09:03:37;100353.80;;;10.43;47.07
51053;BME280;37093;37.716;-122.060;2022-12-07T09:06:06;100354.78;;;10.55;45.63
51053;BME280;37093;37.716;-122.060;2022-12-07T09:08:37;100353.67;;;10.24;47.78
51053;BME280;37093;37.716;-122.060;2022-12-07T09:11:06;100351.60;;;9.97;47.27
51053;BME280;37093;37.716;-122.060;2022-12-07T09:13:35;100355.65;;;10.05;50.09
51053;BME280;37093;37.716;-122.060;2022-12-07T09:16:03;100352.64;;;10.22;47.48
51053;BME280;37093;37.716;-122.060;2022-12-07T09:18:32;100348.32;;;10.32;47.39
51053;BME280;37093;37.716;-122.060;2022-12-07T09:21:00;100347.75;;;9.78;48.61
51053;BME280;37093;37.716;-122.060;2022-12-07T09:23:29;100346.15;;;10.54;47.20
51053;BME280;37093;37.716;-122.060;2022-12-07T09:26:00;100348.41;;;10.84;46.26
51053;BME280;37093;37.716;-122.060;2022-12-07T09:28:28;100347.55;;;10.39;46.71
51053;BME280;37093;37.716;-122.060;2022-12-07T09:30:56;100351.15;;;10.28;46.28
51053;BME280;37093;37.716;-122.060;2022-12-07T09:33:25;100353.39;;;10.75;46.16
51053;BME280;37093;37.716;-122.060;2022-12-07T09:35:54;100353.22;;;10.47;46.84
51053;BME280;37093;37.716;-122.060;2022-12-07T09:38:27;100352.99;;;10.81;46.29
51053;BME280;37093;37.716;-122.060;2022-12-07T09:40:56;100355.42;;;10.19;46.54
51053;BME280;37093;37.716;-122.060;2022-12-07T09:43:25;100359.19;;;10.72;45.84
51053;BME280;37093;37.716;-122.060;2022-12-07T09:45:55;100362.11;;;10.64;45.42
51053;BME280;37093;37.716;-122.060;2022-12-07T09:48:28;100364.92;;;10.98;45.04
51053;BME280;37093;37.716;-122.060;2022-12-07T09:51:00;100366.42;;;10.82;44.78
51053;BME280;37093;37.716;-122.060;2022-12-07T09:53:30;100365.66;;;10.93;44.56
51053;BME280;37093;37.716;-122.060;2022-12-07T09:56:02;100361.88;;;10.99;44.41
51053;BME280;37093;37.716;-122.060;2022-12-07T09:58:32;100360.33;;;11.26;44.01
51053;BME280;37093;37.716;-122.060;2022-12-07T10:01:11;100361.37;;;10.67;44.63
51053;BME280;37093;37.716;-122.060;2022-12-07T10:03:44;100362.66;;;10.80;45.40
51053;BME280;37093;37.716;-122.060;2022-12-07T10:06:13;100362.46;;;10.38;45.98
51053;BME280;37093;37.716;-122.060;2022-12-07T10:08:42;100364.64;;;10.83;45.58
51053;BME280;37093;37.716;-122.060;2022-12-07T10:11:11;100365.62;;;10.51;45.55
51053;BME280;37093;37.716;-122.060;2022-12-07T10:13:41;100365.93;;;10.43;45.41
51053;BME280;37093;37.716;-122.060;2022-12-07T10:16:32;100365.90;;;10.50;45.54
51053;BME280;37093;37.716;-122.060;2022-12-07T10:19:20;100367.40;;;10.92;45.36
51053;BME280;37093;37.716;-122.060;2022-12-07T10:22:10;100367.13;;;10.60;45.18
51053;BME280;37093;37.716;-122.060;2022-12-07T10:24:41;100370.09;;;10.82;45.12
51053;BME280;37093;37.716;-122.060;2022-12-07T10:27:19;100367.69;;;11.15;44.71
51053;BME280;37093;37.716;-122.060;2022-12-07T10:29:50;100369.54;;;11.13;44.84
51053;BME280;37093;37.716;-122.060;2022-12-07T10:32:32;100371.15;;;11.17;44.69
51053;BME280;37093;37.716;-122.060;2022-12-07T10:35:37;100370.58;;;10.70;44.85
51053;BME280;37093;37.716;-122.060;2022-12-07T10:38:17;100369.24;;;10.91;44.40
51053;BME280;37093;37.716;-122.060;2022-12-07T10:40:45;100369.11;;;10.71;44.60
51053;BME280;37093;37.716;-122.060;2022-12-07T10:43:18;100370.86;;;10.82;44.27
51053;BME280;37093;37.716;-122.060;2022-12-07T10:46:09;100373.01;;;10.82;43.93
51053;BME280;37093;37.716;-122.060;2022-12-07T10:48:48;100378.75;;;10.85;43.50
51053;BME280;37093;37.716;-122.060;2022-12-07T10:51:24;100381.46;;;10.84;43.14
51053;BME280;37093;37.716;-122.060;2022-12-07T10:54:06;100377.93;;;11.06;42.95
51053;BME280;37093;37.716;-122.060;2022-12-07T10:56:50;100378.68;;;10.82;43.52
51053;BME280;37093;37.716;-122.060;2022-12-07T11:00:08;100380.00;;;11.07;43.44
51053;BME280;37093;37.716;-122.060;2022-12-07T11:02:47;100380.17;;;11.00;43.53
51053;BME280;37093;37.716;-122.060;2022-12-07T11:05:24;100381.72;;;10.96;43.52
51053;BME280;37093;37.716;-122.060;2022-12-07T11:08:02;100379.00;;;11.17;43.81
51053;BME280;37093;37.716;-122.060;2022-12-07T11:10:41;100377.71;;;10.56;44.01
51053;BME280;37093;37.716;-122.060;2022-12-07T11:13:23;100383.61;;;10.00;45.59
51053;BME280;37093;37.716;-122.060;2022-12-07T11:16:03;100381.84;;;9.64;46.59
51053;BME280;37093;37.716;-122.060;2022-12-07T11:18:40;100383.54;;;10.35;46.05
51053;BME280;37093;37.716;-122.060;2022-12-07T11:21:19;100387.46;;;10.00;45.99
51053;BME280;37093;37.716;-122.060;2022-12-07T11:23:55;100388.84;;;10.42;45.82
51053;BME280;37093;37.716;-122.060;2022-12-07T11:26:41;100388.19;;;10.49;45.72
51053;BME280;37093;37.716;-122.060;2022-12-07T11:29:28;100390.43;;;10.53;45.49
51053;BME280;37093;37.716;-122.060;2022-12-07T11:32:09;100393.13;;;10.56;45.50
51053;BME280;37093;37.716;-122.060;2022-12-07T11:34:45;100393.37;;;10.39;45.16
51053;BME280;37093;37.716;-122.060;2022-12-07T11:37:18;100397.21;;;10.25;45.11
51053;BME280;37093;37.716;-122.060;2022-12-07T11:39:52;100397.44;;;10.55;45.17
51053;BME280;37093;37.716;-122.060;2022-12-07T11:42:26;100398.99;;;10.69;44.93
51053;BME280;37093;37.716;-122.060;2022-12-07T11:44:58;100400.19;;;10.71;44.78
51053;BME280;37093;37.716;-122.060;2022-12-07T11:47:36;100400.66;;;10.76;44.18
51053;BME280;37093;37.716;-122.060;2022-12-07T11:50:21;100401.16;;;10.48;44.26
51053;BME280;37093;37.716;-122.060;2022-12-07T11:52:55;100401.91;;;10.79;43.86
51053;BME280;37093;37.716;-122.060;2022-12-07T11:55:31;100407.60;;;10.45;43.61
51053;BME280;37093;37.716;-122.060;2022-12-07T11:58:12;100407.85;;;10.68;44.13
51053;BME280;37093;37.716;-122.060;2022-12-07T12:00:43;100410.12;;;10.24;44.36
51053;BME280;37093;37.716;-122.060;2022-12-07T12:03:15;100406.38;;;10.77;43.86
51053;BME280;37093;37.716;-122.060;2022-12-07T12:05:44;100408.91;;;10.74;44.16
51053;BME280;37093;37.716;-122.060;2022-12-07T12:08:16;100414.11;;;10.62;44.25
51053;BME280;37093;37.716;-122.060;2022-12-07T12:10:55;100417.23;;;10.35;44.29
51053;BME280;37093;37.716;-122.060;2022-12-07T12:13:44;100425.46;;;10.64;44.40
51053;BME280;37093;37.716;-122.060;2022-12-07T12:16:49;100426.98;;;10.65;44.29
51053;BME280;37093;37.716;-122.060;2022-12-07T12:19:28;100429.90;;;10.69;44.23
51053;BME280;37093;37.716;-122.060;2022-12-07T12:22:05;100425.69;;;10.47;44.24
51053;BME280;37093;37.716;-122.060;2022-12-07T12:24:37;100425.96;;;10.60;44.40
51053;BME280;37093;37.716;-122.060;2022-12-07T12:27:14;100422.34;;;10.36;44.29
51053;BME280;37093;37.716;-122.060;2022-12-07T12:29:44;100428.35;;;10.62;44.34
51053;BME280;37093;37.716;-122.060;2022-12-07T12:32:16;100429.36;;;10.43;44.30
51053;BME280;37093;37.716;-122.060;2022-12-07T12:35:28;100431.75;;;10.66;44.09
51053;BME280;37093;37.716;-122.060;2022-12-07T12:38:27;100430.58;;;10.72;43.80
51053;BME280;37093;37.716;-122.060;2022-12-07T12:40:57;100429.93;;;10.68;43.92
51053;BME280;37093;37.716;-122.060;2022-12-07T12:43:43;100431.81;;;10.72;43.60
51053;BME280;37093;37.716;-122.060;2022-12-07T12:48:29;100430.68;;;10.97;43.66